Time;durP1;ratioP1;P1;durP2;ratioP2;P2;SDS_P1;SDS_P2;PMS_P1;PMS_P2;Temp;Humidity;BMP_temperature;BMP_pressure;BME280_temperature;BME280_humidity;BME280_pressure;Samples;Min_cycle;Max_cycle;Signal;HPM_P1;HPM_P2
2023/04/15 00:01:19;;;;;;;9.33;8.27;;;10.90;99.90;;;;;;5055882;28;20185;-81
2023/04/15 00:03:46;;;;;;;10.95;8.63;;;10.80;99.90;;;;;;5056303;28;20784;-80
2023/04/15 00:06:12;;;;;;;10.65;9.40;;;10.70;99.90;;;;;;5055664;28;20201;-80
2023/04/15 00:08:38;;;;;;;10.23;8.52;;;10.70;99.90;;;;;;5055764;28;20650;-81
2023/04/15 00:11:04;;;;;;;11.30;9.40;;;10.70;99.90;;;;;;5037789;28;20174;-81
2023/04/15 00:13:32;;;;;;;8.70;7.83;;;10.60;99.90;;;;;;5037845;28;20205;-81
2023/04/15 00:15:58;;;;;;;13.88;8.35;;;10.60;99.90;;;;;;5055575;28;20749;-81
2023/04/15 00:18:24;;;;;;;12.30;9.03;;;10.60;99.90;;;;;;5038169;28;20212;-81
2023/04/15 00:20:50;;;;;;;11.17;8.77;;;10.60;99.90;;;;;;5055586;28;20174;-79
2023/04/15 00:23:15;;;;;;;11.13;7.93;;;10.50;99.90;;;;;;5037725;28;20447;-80
2023/04/15 00:25:42;;;;;;;12.40;9.40;;;10.50;99.90;;;;;;5037528;28;20301;-80
2023/04/15 00:28:08;;;;;;;11.23;8.48;;;10.40;99.90;;;;;;5055621;28;20654;-81
2023/04/15 00:30:33;;;;;;;11.18;7.90;;;10.40;99.90;;;;;;5037599;28;20556;-80
2023/04/15 00:33:01;;;;;;;10.83;8.87;;;10.30;99.90;;;;;;5037432;28;20198;-81
2023/04/15 00:35:27;;;;;;;11.70;9.00;;;10.30;99.90;;;;;;5055394;28;20181;-79
2023/04/15 00:37:52;;;;;;;10.03;8.40;;;10.40;99.90;;;;;;5037447;28;20210;-80
2023/04/15 00:40:20;;;;;;;10.40;8.83;;;10.40;99.90;;;;;;5037296;28;20553;-80
2023/04/15 00:42:46;;;;;;;8.13;7.32;;;10.30;99.90;;;;;;5037216;28;20951;-80
2023/04/15 00:45:12;;;;;;;9.70;7.50;;;10.30;99.90;;;;;;5054951;28;20201;-80
2023/04/15 00:47:41;;;;;;;10.27;7.78;;;10.30;99.90;;;;;;5036610;28;20549;-80
2023/04/15 00:50:07;;;;;;;11.07;7.68;;;10.20;99.90;;;;;;5055025;28;20602;-81
2023/04/15 00:52:33;;;;;;;8.90;7.07;;;10.30;99.90;;;;;;5055021;28;20203;-81
2023/04/15 00:54:59;;;;;;;8.43;7.53;;;10.20;99.90;;;;;;5036974;28;20197;-80
2023/04/15 00:57:26;;;;;;;9.85;7.20;;;10.20;99.90;;;;;;5054809;28;20518;-81
2023/04/15 00:59:53;;;;;;;7.70;7.00;;;10.30;99.90;;;;;;5054826;28;20245;-80
2023/04/15 01:02:19;;;;;;;9.18;7.40;;;10.30;99.90;;;;;;5036800;28;20706;-81
2023/04/15 01:04:45;;;;;;;9.73;8.57;;;10.20;99.90;;;;;;5054611;28;20265;-80
2023/04/15 01:07:11;;;;;;;9.02;8.13;;;10.20;99.90;;;;;;5036735;28;20206;-81
2023/04/15 01:09:37;;;;;;;9.10;8.00;;;10.10;99.90;;;;;;5036798;28;20247;-80
2023/04/15 01:12:03;;;;;;;10.10;8.30;;;10.10;99.90;;;;;;5036517;28;20193;-81
2023/04/15 01:14:30;;;;;;;10.13;8.00;;;10.00;99.90;;;;;;5036877;28;20260;-81
2023/04/15 01:16:56;;;;;;;10.80;8.18;;;10.00;99.90;;;;;;5036479;28;20220;-81
2023/04/15 01:19:22;;;;;;;10.95;7.78;;;10.00;99.90;;;;;;5054954;28;20178;-79
2023/04/15 01:21:48;;;;;;;10.53;8.63;;;10.00;99.90;;;;;;5054332;28;20325;-82
2023/04/15 01:24:17;;;;;;;9.83;8.80;;;10.00;99.90;;;;;;5036808;28;20243;-81
2023/04/15 01:26:43;;;;;;;9.43;8.27;;;10.00;99.90;;;;;;5054203;28;20209;-81
2023/04/15 01:29:09;;;;;;;9.18;8.27;;;10.00;99.90;;;;;;5054829;28;20558;-81
2023/04/15 01:31:35;;;;;;;12.10;9.00;;;10.10;99.90;;;;;;5054205;28;20255;-80
2023/04/15 01:34:01;;;;;;;8.90;8.00;;;10.10;99.90;;;;;;5036564;28;20251;-81
2023/04/15 01:36:27;;;;;;;8.77;7.60;;;10.10;99.90;;;;;;5036260;28;20177;-80
2023/04/15 01:38:53;;;;;;;11.52;9.02;;;10.00;99.90;;;;;;5054050;28;20430;-81
2023/04/15 01:41:37;;;;;;;11.18;8.85;;;10.00;99.90;;;;;;5036128;28;20229;-80
2023/04/15 01:44:03;;;;;;;12.98;10.45;;;10.00;99.90;;;;;;5054518;28;20178;-82
2023/04/15 01:46:28;;;;;;;12.33;9.63;;;10.10;99.90;;;;;;5053836;28;20278;-81
2023/04/15 01:48:54;;;;;;;15.10;9.30;;;10.10;99.90;;;;;;5054345;28;20537;-80
2023/04/15 01:51:20;;;;;;;16.42;10.73;;;10.10;99.90;;;;;;5053849;28;20188;-80
2023/04/15 01:53:46;;;;;;;12.80;9.95;;;10.00;99.90;;;;;;5054290;28;20699;-81
2023/04/15 01:56:11;;;;;;;11.90;9.77;;;10.00;99.90;;;;;;5053929;28;20261;-80
2023/04/15 01:58:39;;;;;;;13.37;9.20;;;10.00;99.90;;;;;;5053719;28;20184;-81
2023/04/15 02:01:04;;;;;;;12.48;9.73;;;9.90;99.90;;;;;;5035544;28;20251;-79
2023/04/15 02:03:30;;;;;;;10.57;9.10;;;10.10;99.90;;;;;;5053985;28;20194;-80
2023/04/15 02:05:56;;;;;;;13.57;10.03;;;10.10;99.90;;;;;;5053658;28;20209;-80
2023/04/15 02:08:22;;;;;;;14.13;9.37;;;10.20;99.90;;;;;;5035858;28;20233;-80
2023/04/15 02:10:48;;;;;;;10.23;9.13;;;10.10;99.90;;;;;;5035727;28;20411;-80
2023/04/15 02:13:13;;;;;;;14.10;9.93;;;10.10;99.90;;;;;;5035864;28;20451;-80
2023/04/15 02:15:39;;;;;;;12.13;9.70;;;10.10;99.90;;;;;;5053697;28;20189;-80
2023/04/15 02:18:05;;;;;;;11.50;8.33;;;10.10;99.90;;;;;;5035965;28;20202;-81
2023/04/15 02:20:31;;;;;;;10.80;9.10;;;10.10;99.90;;;;;;5053619;28;20945;-81
2023/04/15 02:22:56;;;;;;;13.30;9.77;;;10.10;99.90;;;;;;5053669;28;20221;-81
2023/04/15 02:25:22;;;;;;;10.27;9.17;;;10.00;99.90;;;;;;5053496;28;20206;-80
2023/04/15 02:27:48;;;;;;;13.03;9.30;;;10.00;99.90;;;;;;5035599;28;20206;-80
2023/04/15 02:30:14;;;;;;;10.77;8.93;;;9.90;99.90;;;;;;5053511;28;20165;-80
2023/04/15 02:32:42;;;;;;;11.13;8.80;;;9.90;99.90;;;;;;5053470;28;20205;-81
2023/04/15 02:35:08;;;;;;;12.18;9.93;;;9.90;99.90;;;;;;5035530;28;20178;-80
2023/04/15 02:37:42;;;;;;;12.38;10.02;;;10.00;99.90;;;;;;5035530;28;20209;-80
2023/04/15 02:40:12;;;;;;;11.18;9.32;;;10.00;99.90;;;;;;5035521;28;20271;-81
2023/04/15 02:42:41;;;;;;;13.02;10.60;;;10.00;99.90;;;;;;5035500;28;20212;-81
2023/04/15 02:45:08;;;;;;;10.07;9.05;;;10.00;99.90;;;;;;5053239;28;20682;-81
2023/04/15 02:47:38;;;;;;;17.13;10.90;;;10.00;99.90;;;;;;5053381;28;20194;-80
2023/04/15 02:50:06;;;;;;;16.02;10.70;;;10.00;99.90;;;;;;5035338;28;20178;-81
2023/04/15 02:52:32;;;;;;;12.60;10.20;;;9.90;99.90;;;;;;5035294;28;20202;-81
2023/04/15 02:55:01;;;;;;;16.87;10.77;;;9.80;99.90;;;;;;5035313;28;20185;-81
2023/04/15 02:57:30;;;;;;;11.75;10.20;;;9.80;99.90;;;;;;5035261;28;20678;-81
2023/04/15 02:59:55;;;;;;;14.60;10.38;;;9.70;99.90;;;;;;5053163;28;20178;-80
2023/04/15 03:02:21;;;;;;;12.67;11.00;;;9.70;99.90;;;;;;5035343;28;20300;-80
2023/04/15 03:04:47;;;;;;;14.60;10.67;;;9.70;99.90;;;;;;5053061;28;20174;-80
2023/04/15 03:07:13;;;;;;;12.82;10.20;;;9.70;99.90;;;;;;5053038;28;20190;-80
2023/04/15 03:09:40;;;;;;;12.23;9.60;;;9.60;99.90;;;;;;5035305;28;20700;-80
2023/04/15 03:12:06;;;;;;;13.00;10.23;;;9.60;99.90;;;;;;5056241;28;20193;-80
2023/04/15 03:14:31;;;;;;;14.40;11.13;;;9.60;99.90;;;;;;5056875;28;20179;-81
2023/04/15 03:16:58;;;;;;;15.83;10.90;;;9.60;99.90;;;;;;5056754;28;20427;-80
2023/04/15 03:19:24;;;;;;;16.65;11.77;;;9.40;99.90;;;;;;5039094;28;20181;-80
2023/04/15 03:21:50;;;;;;;15.40;11.05;;;9.30;99.90;;;;;;5056580;28;20217;-81
2023/04/15 03:24:17;;;;;;;14.93;11.43;;;9.30;99.90;;;;;;5057201;28;20192;-80
2023/04/15 03:26:43;;;;;;;13.60;10.80;;;9.20;99.90;;;;;;5038510;28;20228;-79
2023/04/15 03:29:08;;;;;;;12.90;10.83;;;9.20;99.90;;;;;;5038985;28;20177;-81
2023/04/15 03:31:34;;;;;;;15.03;11.90;;;9.30;99.90;;;;;;5038590;28;20202;-81
2023/04/15 03:34:00;;;;;;;13.20;11.17;;;9.20;99.90;;;;;;5056951;28;20215;-81
2023/04/15 03:36:27;;;;;;;17.43;11.03;;;9.10;99.90;;;;;;5056446;28;20185;-81
2023/04/15 03:38:53;;;;;;;11.73;9.95;;;9.00;99.90;;;;;;5056771;28;20641;-81
2023/04/15 03:41:19;;;;;;;13.65;11.52;;;8.90;99.90;;;;;;5056470;28;20325;-81
2023/04/15 03:43:45;;;;;;;15.13;11.43;;;8.90;99.90;;;;;;5056720;28;20213;-79
2023/04/15 03:46:11;;;;;;;15.90;11.30;;;8.80;99.90;;;;;;5038258;28;20282;-79
2023/04/15 03:48:36;;;;;;;13.83;12.00;;;8.80;99.90;;;;;;5056473;28;20926;-80
2023/04/15 03:51:02;;;;;;;15.97;11.93;;;8.90;99.90;;;;;;5056135;28;20170;-81
2023/04/15 03:53:28;;;;;;;14.30;11.87;;;9.00;99.90;;;;;;5038242;28;20450;-80
2023/04/15 03:55:54;;;;;;;13.13;10.93;;;9.10;99.90;;;;;;5038154;28;20180;-81
2023/04/15 03:58:19;;;;;;;19.03;11.67;;;9.20;99.90;;;;;;5038211;28;20256;-81
2023/04/15 04:00:45;;;;;;;15.87;11.13;;;9.20;99.90;;;;;;5037955;28;20190;-79
2023/04/15 04:03:11;;;;;;;16.40;11.30;;;9.20;99.90;;;;;;5038163;28;20204;-82
2023/04/15 04:05:42;;;;;;;13.97;11.40;;;9.20;99.90;;;;;;5055911;28;20620;-80
2023/04/15 04:08:08;;;;;;;12.07;10.55;;;9.20;99.90;;;;;;5056074;28;20450;-80
2023/04/15 04:10:34;;;;;;;17.87;11.87;;;9.20;99.90;;;;;;5055733;28;20249;-81
2023/04/15 04:13:00;;;;;;;13.97;12.20;;;9.20;99.90;;;;;;5055829;28;20915;-79
2023/04/15 04:15:26;;;;;;;14.30;12.80;;;9.30;99.90;;;;;;5055709;28;20183;-80
2023/04/15 04:17:52;;;;;;;15.50;11.43;;;9.30;99.90;;;;;;5055820;28;20635;-79
2023/04/15 04:20:18;;;;;;;12.47;10.73;;;9.30;99.90;;;;;;5037791;28;20422;-80
2023/04/15 04:22:43;;;;;;;16.50;13.40;;;9.40;99.90;;;;;;5054654;28;20202;-81
2023/04/15 04:25:09;;;;;;;14.53;10.90;;;9.50;99.90;;;;;;5055506;28;20217;-79
2023/04/15 04:27:35;;;;;;;15.52;11.30;;;9.50;99.90;;;;;;5037636;28;20209;-81
2023/04/15 04:30:01;;;;;;;15.30;12.03;;;9.60;99.90;;;;;;5055335;28;20170;-81
2023/04/15 04:32:27;;;;;;;15.00;11.50;;;9.60;99.90;;;;;;5037403;28;20221;-81
2023/04/15 04:34:53;;;;;;;15.43;12.07;;;9.60;99.90;;;;;;5055315;28;20228;-79
2023/04/15 04:37:18;;;;;;;12.93;11.35;;;9.60;99.90;;;;;;5037355;28;20670;-79
2023/04/15 04:39:44;;;;;;;11.90;9.73;;;9.60;99.90;;;;;;5037474;28;20193;-81
2023/04/15 04:42:10;;;;;;;13.53;11.43;;;9.60;99.90;;;;;;5055125;28;20193;-81
2023/04/15 04:44:36;;;;;;;14.20;10.20;;;9.60;99.90;;;;;;5055088;28;20273;-80
2023/04/15 04:47:01;;;;;;;14.73;11.43;;;9.60;99.90;;;;;;5054827;28;20209;-82
2023/04/15 04:49:27;;;;;;;18.33;11.20;;;9.60;99.90;;;;;;5055062;28;20402;-81
2023/04/15 04:51:53;;;;;;;16.37;10.93;;;9.70;99.90;;;;;;5054918;28;20694;-79
2023/04/15 04:54:18;;;;;;;14.70;10.17;;;9.60;99.90;;;;;;5037395;28;20212;-81
2023/04/15 04:56:45;;;;;;;11.80;10.03;;;9.60;99.90;;;;;;5054815;28;20663;-80
2023/04/15 04:59:10;;;;;;;13.68;10.95;;;9.60;99.90;;;;;;5054955;28;20181;-80
2023/04/15 05:01:36;;;;;;;15.10;12.00;;;9.60;99.90;;;;;;5037066;28;20220;-79
2023/04/15 05:04:03;;;;;;;12.40;10.70;;;9.70;99.90;;;;;;5055297;28;20677;-81
2023/04/15 05:06:29;;;;;;;15.15;11.80;;;9.60;99.90;;;;;;5054623;28;20296;-81
2023/04/15 05:08:55;;;;;;;17.48;11.75;;;9.50;99.90;;;;;;5037126;28;20193;-81
2023/04/15 05:11:21;;;;;;;14.73;11.63;;;9.50;99.90;;;;;;5036778;28;20173;-79
2023/04/15 05:13:46;;;;;;;12.33;10.20;;;9.60;99.90;;;;;;5036934;28;20269;-79
2023/04/15 05:16:12;;;;;;;15.70;12.30;;;9.50;99.90;;;;;;5054826;28;20208;-81
2023/04/15 05:18:38;;;;;;;16.57;12.47;;;9.40;99.90;;;;;;5036750;28;20192;-79
2023/04/15 05:21:04;;;;;;;12.97;10.90;;;9.50;99.90;;;;;;5036520;28;20174;-79
2023/04/15 05:23:29;;;;;;;14.00;11.85;;;9.50;99.90;;;;;;5036608;28;20232;-79
2023/04/15 05:25:55;;;;;;;17.03;11.53;;;9.60;99.90;;;;;;5054290;28;20616;-79
2023/04/15 05:28:21;;;;;;;17.17;13.17;;;9.60;99.90;;;;;;5054597;28;20643;-80
2023/04/15 05:30:46;;;;;;;15.67;11.40;;;9.60;99.90;;;;;;5054243;28;20196;-79
2023/04/15 05:33:12;;;;;;;16.40;12.77;;;9.60;99.90;;;;;;5036285;28;20202;-81
2023/04/15 05:35:38;;;;;;;13.20;11.73;;;9.60;99.90;;;;;;5054288;28;20231;-81
2023/04/15 05:38:04;;;;;;;15.10;12.97;;;9.50;99.90;;;;;;5054231;28;20539;-79
2023/04/15 05:40:30;;;;;;;15.90;12.57;;;9.50;99.90;;;;;;5053827;28;20803;-79
2023/04/15 05:42:56;;;;;;;16.17;12.90;;;9.50;99.90;;;;;;5036172;28;20201;-79
2023/04/15 05:45:22;;;;;;;17.23;13.15;;;9.50;99.90;;;;;;5035636;28;20217;-79
2023/04/15 05:47:49;;;;;;;13.67;12.20;;;9.50;99.90;;;;;;5034968;28;20208;-79
2023/04/15 05:50:15;;;;;;;13.55;11.10;;;9.50;99.90;;;;;;5053183;28;20166;-79
2023/04/15 05:52:41;;;;;;;19.80;13.50;;;9.50;99.90;;;;;;5035376;28;20224;-82
2023/04/15 05:55:07;;;;;;;17.50;13.57;;;9.60;99.90;;;;;;5036018;28;20177;-81
2023/04/15 05:57:33;;;;;;;14.00;12.35;;;9.70;99.90;;;;;;5035212;28;20308;-81
2023/04/15 05:59:58;;;;;;;16.23;12.60;;;9.80;99.90;;;;;;5033794;28;20672;-80
2023/04/15 06:02:25;;;;;;;22.60;12.20;;;9.80;99.90;;;;;;5033648;28;20670;-78
2023/04/15 06:04:51;;;;;;;14.15;12.10;;;9.80;99.90;;;;;;5033359;28;20178;-81
2023/04/15 06:07:16;;;;;;;10.83;9.20;;;9.90;99.90;;;;;;5033700;28;20194;-81
2023/04/15 06:09:42;;;;;;;13.67;10.40;;;10.00;99.90;;;;;;5032594;28;20450;-79
2023/04/15 06:12:11;;;;;;;15.07;12.73;;;10.00;99.90;;;;;;5049712;28;20198;-79
2023/04/15 06:14:37;;;;;;;12.27;10.93;;;10.10;99.90;;;;;;5033528;28;20197;-79
2023/04/15 06:17:03;;;;;;;12.85;11.18;;;10.20;99.90;;;;;;5033220;28;20225;-81
2023/04/15 06:19:29;;;;;;;13.60;11.77;;;10.20;99.90;;;;;;5052211;28;20209;-80
2023/04/15 06:21:54;;;;;;;12.33;11.13;;;10.30;99.90;;;;;;5051702;28;20186;-79
2023/04/15 06:24:20;;;;;;;13.50;11.60;;;10.30;99.90;;;;;;5053006;28;20417;-81
2023/04/15 06:26:46;;;;;;;13.33;10.80;;;10.40;99.90;;;;;;5031143;28;20217;-79
2023/04/15 06:29:11;;;;;;;16.97;12.67;;;10.50;99.90;;;;;;5033867;28;20524;-79
2023/04/15 06:31:37;;;;;;;14.60;11.37;;;10.60;99.90;;;;;;5015540;28;20204;-82
2023/04/15 06:34:03;;;;;;;15.80;11.20;;;10.70;99.90;;;;;;5033914;28;20182;-79
2023/04/15 06:36:29;;;;;;;13.33;11.07;;;10.90;99.90;;;;;;5033454;28;20191;-82
2023/04/15 06:38:55;;;;;;;14.25;12.05;;;11.00;99.90;;;;;;5033744;28;20206;-80
2023/04/15 06:41:21;;;;;;;20.75;18.70;;;11.20;99.90;;;;;;5015704;28;20261;-79
2023/04/15 06:43:47;;;;;;;12.50;10.98;;;11.30;99.90;;;;;;5015880;28;20610;-79
2023/04/15 06:46:13;;;;;;;13.03;10.57;;;11.40;99.90;;;;;;5035297;28;20288;-80
2023/04/15 06:48:39;;;;;;;12.10;10.87;;;11.40;99.90;;;;;;5019917;28;20193;-80
2023/04/15 06:51:05;;;;;;;14.20;11.13;;;11.50;99.90;;;;;;5037218;28;20478;-80
2023/04/15 06:53:30;;;;;;;12.40;10.63;;;11.50;99.90;;;;;;5037487;28;20191;-79
2023/04/15 06:55:56;;;;;;;13.47;10.70;;;11.60;99.90;;;;;;5019511;28;20411;-82
2023/04/15 06:58:22;;;;;;;10.97;9.77;;;11.60;99.90;;;;;;5037362;28;20443;-82
2023/04/15 07:00:48;;;;;;;11.17;9.97;;;11.70;99.90;;;;;;5019111;28;20182;-80
2023/04/15 07:03:13;;;;;;;12.23;9.63;;;11.70;99.90;;;;;;5035891;28;20290;-80
2023/04/15 07:05:40;;;;;;;13.17;9.80;;;11.80;99.90;;;;;;5019152;28;20493;-81
2023/04/15 07:08:06;;;;;;;13.07;9.00;;;11.80;99.90;;;;;;5037162;28;20550;-82
2023/04/15 07:10:33;;;;;;;13.55;9.88;;;11.80;99.90;;;;;;5037308;28;20529;-80
2023/04/15 07:12:59;;;;;;;11.10;9.65;;;12.00;99.90;;;;;;5036946;28;20206;-80
2023/04/15 07:15:24;;;;;;;12.10;9.07;;;12.10;99.90;;;;;;5036722;28;20606;-79
2023/04/15 07:17:50;;;;;;;10.70;9.60;;;12.20;99.90;;;;;;5018139;28;20675;-82
2023/04/15 07:20:16;;;;;;;10.10;8.53;;;12.20;99.90;;;;;;5034740;28;20423;-80
2023/04/15 07:22:42;;;;;;;9.60;8.60;;;12.20;99.90;;;;;;5034617;28;20277;-82
2023/04/15 07:25:08;;;;;;;11.90;8.73;;;12.20;99.90;;;;;;5034478;28;20981;-82
2023/04/15 07:27:34;;;;;;;9.67;8.10;;;12.20;99.90;;;;;;5034456;28;20428;-80
2023/04/15 07:29:59;;;;;;;9.90;8.20;;;12.20;99.90;;;;;;5034576;28;20396;-80
2023/04/15 07:32:26;;;;;;;7.97;7.20;;;12.30;99.90;;;;;;5034464;28;20264;-81
2023/04/15 07:34:52;;;;;;;10.20;8.80;;;12.40;99.90;;;;;;5036495;28;20163;-81
2023/04/15 07:37:18;;;;;;;9.33;7.63;;;12.50;99.90;;;;;;5036405;28;20436;-80
2023/04/15 07:39:44;;;;;;;8.03;7.20;;;12.40;99.90;;;;;;5036253;28;20415;-83
2023/04/15 07:42:10;;;;;;;9.33;8.07;;;12.40;99.90;;;;;;5018514;28;20964;-80
2023/04/15 07:44:36;;;;;;;9.13;7.60;;;12.40;99.90;;;;;;5036185;28;20407;-81
2023/04/15 07:47:02;;;;;;;8.30;7.13;;;12.40;99.90;;;;;;5035982;28;20226;-81
2023/04/15 07:49:28;;;;;;;9.13;7.23;;;12.60;99.90;;;;;;5035901;28;20179;-80
2023/04/15 07:51:56;;;;;;;9.77;7.97;;;12.70;99.90;;;;;;5018298;28;20502;-81
2023/04/15 07:54:22;;;;;;;8.47;7.67;;;12.90;99.90;;;;;;5018811;28;20213;-79
2023/04/15 07:56:47;;;;;;;8.83;7.80;;;13.00;99.90;;;;;;5015344;28;20471;-80
2023/04/15 07:59:16;;;;;;;8.67;7.80;;;13.20;99.90;;;;;;5036368;28;20632;-80
2023/04/15 08:01:42;;;;;;;7.87;7.07;;;13.30;99.90;;;;;;5035827;28;20197;-82
2023/04/15 08:04:09;;;;;;;6.77;5.63;;;13.50;99.90;;;;;;5035371;28;20426;-82
2023/04/15 08:06:35;;;;;;;7.23;6.40;;;13.60;99.90;;;;;;5035156;28;21013;-80
2023/04/15 08:09:01;;;;;;;10.03;7.00;;;13.70;99.90;;;;;;5018213;28;20435;-82
2023/04/15 08:11:27;;;;;;;5.90;5.10;;;13.80;99.90;;;;;;5016781;28;20952;-82
2023/04/15 08:13:53;;;;;;;4.57;4.03;;;13.90;99.90;;;;;;5015933;28;20422;-81
2023/04/15 08:16:23;;;;;;;6.23;3.77;;;13.70;99.90;;;;;;5016020;28;20182;-81
2023/04/15 08:18:50;;;;;;;8.40;5.70;;;13.70;99.90;;;;;;5034114;28;20174;-81
2023/04/15 08:21:17;;;;;;;5.77;4.00;;;13.80;99.90;;;;;;5015733;28;20430;-80
2023/04/15 08:23:44;;;;;;;4.40;2.80;;;13.80;99.90;;;;;;5033836;28;20427;-79
2023/04/15 08:26:10;;;;;;;2.90;1.97;;;13.80;99.90;;;;;;5033264;28;20832;-80
2023/04/15 08:28:38;;;;;;;2.70;2.37;;;13.70;99.90;;;;;;5033717;28;20411;-83
2023/04/15 08:31:04;;;;;;;3.10;2.03;;;13.60;99.90;;;;;;5033335;28;20420;-79
2023/04/15 08:33:30;;;;;;;2.57;1.73;;;13.60;99.90;;;;;;5014962;28;20447;-80
2023/04/15 08:35:56;;;;;;;3.93;1.80;;;13.50;99.90;;;;;;5033198;28;20408;-82
2023/04/15 08:38:22;;;;;;;1.53;1.30;;;13.50;99.90;;;;;;5032296;28;20198;-80
2023/04/15 08:40:48;;;;;;;2.37;1.97;;;13.60;99.90;;;;;;5014102;28;20463;-80
2023/04/15 08:43:27;;;;;;;2.53;2.10;;;13.70;99.90;;;;;;5014906;28;20502;-82
2023/04/15 08:45:53;;;;;;;2.20;2.00;;;13.90;99.90;;;;;;5015236;28;20549;-81
2023/04/15 08:48:21;;;;;;;2.43;2.23;;;14.00;99.90;;;;;;5032977;28;20959;-82
2023/04/15 08:50:47;;;;;;;1.63;1.53;;;14.50;99.90;;;;;;5032986;28;20411;-80
2023/04/15 08:53:14;;;;;;;2.03;1.40;;;15.10;99.90;;;;;;5015147;28;20980;-81
2023/04/15 08:55:44;;;;;;;9.40;5.83;;;15.60;99.90;;;;;;5017183;28;20408;-80
2023/04/15 08:58:12;;;;;;;11.70;10.60;;;15.80;99.90;;;;;;5017252;28;20959;-84
2023/04/15 09:00:38;;;;;;;4.23;3.83;;;15.90;99.90;;;;;;5017165;28;20420;-80
2023/04/15 09:03:08;;;;;;;2.17;1.97;;;15.90;99.90;;;;;;5021684;28;20900;-82
2023/04/15 09:05:35;;;;;;;2.20;2.10;;;16.00;99.90;;;;;;5055785;28;20836;-79
2023/04/15 09:08:01;;;;;;;3.47;2.67;;;16.00;99.90;;;;;;5054104;28;20504;-82
2023/04/15 09:10:28;;;;;;;3.30;2.83;;;15.90;99.90;;;;;;5031061;28;20443;-83
2023/04/15 09:12:54;;;;;;;3.07;2.57;;;15.80;99.90;;;;;;5035669;28;20537;-82
2023/04/15 09:15:21;;;;;;;3.00;2.80;;;15.90;99.90;;;;;;5033860;28;20438;-83
2023/04/15 09:17:47;;;;;;;6.83;3.10;;;15.70;99.90;;;;;;5052293;28;21027;-82
2023/04/15 09:20:15;;;;;;;2.57;2.30;;;15.50;99.90;;;;;;5034506;28;20788;-80
2023/04/15 09:22:42;;;;;;;2.67;2.40;;;15.40;99.90;;;;;;5034250;28;20858;-80
2023/04/15 09:25:23;;;;;;;2.33;1.97;;;15.10;99.90;;;;;;5034316;28;20430;-81
2023/04/15 09:27:50;;;;;;;2.83;2.63;;;14.80;99.90;;;;;;5052208;28;20467;-82
2023/04/15 09:30:16;;;;;;;2.83;2.63;;;14.60;99.90;;;;;;5052441;28;21197;-80
2023/04/15 09:33:00;;;;;;;3.03;2.60;;;14.60;99.90;;;;;;5052032;28;20439;-83
2023/04/15 09:35:27;;;;;;;2.77;2.50;;;14.70;99.90;;;;;;5052061;28;20417;-82
2023/04/15 09:38:01;;;;;;;2.40;2.20;;;14.70;99.90;;;;;;5033919;28;20446;-80
2023/04/15 09:40:35;;;;;;;2.37;2.17;;;14.70;99.90;;;;;;5033389;28;20502;-80
2023/04/15 09:43:02;;;;;;;2.33;2.13;;;14.80;99.90;;;;;;5030511;28;20490;-80
2023/04/15 09:45:28;;;;;;;2.80;2.60;;;14.90;99.90;;;;;;5032821;28;20964;-82
2023/04/15 09:47:59;;;;;;;2.50;2.30;;;15.10;99.90;;;;;;5033609;28;20439;-84
2023/04/15 09:50:28;;;;;;;2.13;2.00;;;15.30;99.90;;;;;;5033295;28;20440;-80
2023/04/15 09:52:54;;;;;;;3.10;2.77;;;15.20;99.90;;;;;;5032634;28;20475;-82
2023/04/15 09:55:20;;;;;;;1.90;1.80;;;15.10;99.90;;;;;;5034011;28;20842;-82
2023/04/15 09:57:46;;;;;;;4.20;3.87;;;15.20;99.90;;;;;;5032551;28;20482;-80
2023/04/15 10:00:12;;;;;;;7.90;7.10;;;15.10;99.90;;;;;;5032068;28;20185;-81
2023/04/15 10:02:43;;;;;;;2.27;2.07;;;15.20;99.90;;;;;;5032593;28;20590;-83
2023/04/15 10:05:15;;;;;;;2.70;2.47;;;15.10;99.90;;;;;;5032618;28;20503;-80
2023/04/15 10:07:41;;;;;;;2.33;2.13;;;15.10;99.90;;;;;;5033858;28;20534;-81
2023/04/15 10:10:08;;;;;;;2.13;2.03;;;15.10;99.90;;;;;;5032721;28;20419;-80
2023/04/15 10:12:39;;;;;;;4.23;3.57;;;15.10;99.90;;;;;;5033755;28;20439;-80
2023/04/15 10:15:07;;;;;;;5.93;5.43;;;15.10;99.90;;;;;;5033770;28;20393;-83
2023/04/15 10:17:34;;;;;;;7.03;6.37;;;15.00;99.90;;;;;;5032330;28;20486;-80
2023/04/15 10:20:02;;;;;;;8.50;7.80;;;14.90;99.90;;;;;;5031694;28;20936;-80
2023/04/15 10:22:28;;;;;;;11.80;10.60;;;14.90;99.90;;;;;;5032324;28;20455;-82
2023/04/15 10:24:56;;;;;;;21.70;14.03;;;14.90;99.90;;;;;;5032290;28;20431;-81
2023/04/15 10:27:22;;;;;;;5.47;4.97;;;15.20;99.90;;;;;;5033562;28;20824;-80
2023/04/15 10:29:51;;;;;;;3.13;2.83;;;15.20;99.90;;;;;;5032303;28;20434;-81
2023/04/15 10:32:21;;;;;;;4.90;4.60;;;15.30;99.90;;;;;;5032040;28;20451;-81
2023/04/15 10:34:48;;;;;;;2.20;1.80;;;15.30;99.90;;;;;;5032235;28;20434;-82
2023/04/15 10:37:20;;;;;;;1.97;1.87;;;15.40;99.90;;;;;;5032191;28;20534;-84
2023/04/15 10:39:46;;;;;;;3.23;2.60;;;15.40;99.90;;;;;;5031744;28;20412;-81
2023/04/15 10:42:16;;;;;;;2.63;1.63;;;15.60;99.90;;;;;;5032001;28;20898;-83
2023/04/15 10:44:47;;;;;;;1.20;1.10;;;15.60;99.90;;;;;;5032139;28;20416;-83
2023/04/15 10:47:18;;;;;;;1.50;1.20;;;15.40;99.90;;;;;;5033494;28;20468;-82
2023/04/15 10:49:55;;;;;;;2.57;1.40;;;15.40;99.90;;;;;;5033569;28;20412;-80
2023/04/15 10:52:23;;;;;;;1.47;1.37;;;15.50;99.90;;;;;;5033341;28;20446;-81
2023/04/15 10:54:49;;;;;;;2.13;1.13;;;15.80;99.90;;;;;;5033351;28;20916;-83
2023/04/15 10:57:22;;;;;;;4.67;3.13;;;16.00;99.90;;;;;;5033310;28;20473;-82
2023/04/15 10:59:57;;;;;;;3.03;1.97;;;16.00;99.90;;;;;;5033343;28;20446;-82
2023/04/15 11:02:50;;;;;;;3.00;2.40;;;15.80;99.90;;;;;;5032052;28;20438;-80
2023/04/15 11:05:17;;;;;;;2.60;1.30;;;15.80;99.90;;;;;;5032006;28;20550;-80
2023/04/15 11:07:49;;;;;;;36.57;19.97;;;16.00;99.90;;;;;;5032197;28;20834;-83
2023/04/15 11:10:24;;;;;;;3.17;2.20;;;15.90;99.90;;;;;;5031914;28;20427;-82
2023/04/15 11:12:52;;;;;;;15.70;11.50;;;15.90;99.90;;;;;;5031399;28;20474;-80
2023/04/15 11:15:31;;;;;;;2.40;2.20;;;15.80;99.90;;;;;;5028641;28;20473;-80
2023/04/15 11:18:24;;;;;;;1.50;1.40;;;15.70;99.90;;;;;;5029296;28;20451;-81
2023/04/15 11:20:58;;;;;;;2.20;1.40;;;15.70;99.90;;;;;;5030009;28;20404;-82
2023/04/15 11:23:45;;;;;;;1.67;1.57;;;15.60;99.90;;;;;;5029666;28;20431;-82
2023/04/15 11:26:12;;;;;;;2.00;1.17;;;15.80;99.90;;;;;;5028961;28;20479;-81
2023/04/15 11:28:43;;;;;;;2.00;1.57;;;15.70;99.90;;;;;;5028065;28;20423;-83
2023/04/15 11:31:15;;;;;;;1.40;1.23;;;15.90;99.90;;;;;;5029190;28;20404;-80
2023/04/15 11:33:45;;;;;;;1.90;1.20;;;15.90;99.90;;;;;;5031554;28;20532;-82
2023/04/15 11:36:11;;;;;;;0.90;0.90;;;15.80;99.90;;;;;;5032272;28;20487;-84
2023/04/15 11:38:41;;;;;;;4.13;1.90;;;15.60;99.90;;;;;;5030477;28;20443;-83
2023/04/15 11:41:06;;;;;;;2.90;1.23;;;15.40;99.90;;;;;;5031497;28;20489;-82
2023/04/15 11:43:34;;;;;;;2.23;1.40;;;15.40;99.90;;;;;;5034336;28;20443;-82
2023/04/15 11:46:01;;;;;;;2.47;2.27;;;15.60;99.90;;;;;;5035068;28;20238;-80
2023/04/15 11:48:29;;;;;;;1.40;1.30;;;15.90;99.90;;;;;;5034953;28;20489;-81
2023/04/15 11:50:58;;;;;;;1.40;1.30;;;16.10;99.90;;;;;;5035240;28;20440;-80
2023/04/15 11:53:34;;;;;;;1.77;1.67;;;16.30;99.90;;;;;;5036398;28;20482;-80
2023/04/15 11:56:00;;;;;;;1.63;1.53;;;16.40;99.90;;;;;;5034957;28;20415;-82
2023/04/15 11:58:26;;;;;;;2.40;2.20;;;16.40;99.90;;;;;;5036479;28;20440;-81
2023/04/15 12:00:57;;;;;;;3.07;1.53;;;16.30;99.90;;;;;;5036129;28;20498;-80
2023/04/15 12:03:39;;;;;;;1.70;1.30;;;16.30;99.90;;;;;;5036362;28;20698;-80
2023/04/15 12:06:11;;;;;;;1.73;1.60;;;16.10;99.90;;;;;;5034685;28;20471;-81
2023/04/15 12:09:21;;;;;;;1.70;1.60;;;15.80;99.90;;;;;;5034932;28;20485;-81
2023/04/15 12:11:52;;;;;;;1.43;1.30;;;15.90;99.90;;;;;;5030387;28;20543;-80
2023/04/15 12:14:32;;;;;;;1.60;1.50;;;16.10;99.90;;;;;;5036400;28;20440;-82
2023/04/15 12:17:04;;;;;;;2.10;1.23;;;16.30;99.90;;;;;;5034497;28;20443;-81
2023/04/15 12:19:38;;;;;;;2.87;2.67;;;16.30;99.90;;;;;;5034598;28;20420;-82
2023/04/15 12:22:09;;;;;;;1.80;1.63;;;16.30;99.90;;;;;;5035669;28;20481;-82
2023/04/15 12:24:36;;;;;;;1.60;1.47;;;16.30;99.90;;;;;;5034551;28;20503;-82
2023/04/15 12:27:06;;;;;;;2.10;1.37;;;16.30;99.90;;;;;;5049448;28;21018;-80
2023/04/15 12:29:33;;;;;;;1.77;1.23;;;16.50;99.90;;;;;;5054526;28;20415;-82
2023/04/15 12:32:06;;;;;;;2.00;1.17;;;16.50;99.90;;;;;;5054352;28;20434;-81
2023/04/15 12:34:36;;;;;;;1.90;1.80;;;16.10;99.90;;;;;;5036542;28;20438;-80
2023/04/15 12:37:05;;;;;;;1.70;1.60;;;16.10;99.90;;;;;;5054526;28;20423;-82
2023/04/15 12:39:35;;;;;;;1.30;1.20;;;16.30;99.90;;;;;;5054348;28;20453;-80
2023/04/15 12:42:03;;;;;;;1.93;1.83;;;16.50;99.90;;;;;;5036621;28;20536;-81